Guido Hinteregger

Chefscout - Rapid Wien
4 Apr 2028
Dienstag
Verarbeitung

Persönlichkeit

Anpassungsfähigkeit (8) Ehrgeiz (4) Kontroverse (3) Loyalität (8) Druck (18) Professionalität (5) Fairness (14) Temperament (8)

Profil

Trainerstil Demokratisch
Lizenz Kontinentale A
Entschlossenheit 12
Menschenführung 13
Motivation 8
Disziplin 8
Arbeitszufriedenheit
100%
Ermüdung
0%
Rolle Chefscout
Gehalt 86.5K p/W
Vertrag 14.03.2029

Leistung

Verhalten Gut
Trainingseffektivität
40%
Spielerentwicklung
50%
Verletzungsprävention
35%
Taktische Umsetzung
30%

Letzte Ereignisse

Geburtstag 21T her

Aktuell beobachtet

85
Spieler Verein Status Fähigkeit Vertrauen Beobachtet Zuletzt beobachtet Letzte Stimme
Benjamin Böckle Altach Aktiv 123 / 130 65% 1 24.01.2028 Befürworten
Ezra Mayers West Ham United Aktiv 129 / 119 40% 1 17.01.2028 -
Gopolang Taunyane Ajax Cape Town Aktiv 92 / 114 40% 2 06.01.2028 -
Rafael Vargas Cortulua Verloren 95 / 110 40% 1 06.01.2028 -
Bahmed Deuff FC Metz Aktiv 122 / 132 40% 1 06.01.2028 -
Angelo Gattermayer Wolfsberger AC Verloren 133 / 133 65% 1 01.01.2028 -
Felipe Chávez Bayern Munich Aktiv 120 / 128 40% 1 01.01.2028 -
Izan Merino Málaga Aktiv 127 / 140 40% 1 01.01.2028 -
Christ Inao Oulaï Fiorentina Aktiv 136 / 149 40% 1 16.08.2027 -
Steven Hughes Fulham Aktiv 94 / 97 40% 1 04.08.2027 -
Martín Almeida Montevideo City Torque Aktiv 114 / 96 40% 1 03.08.2027 -
Aleksi Piispa VPS Aktiv 94 / 92 40% 2 01.08.2027 -
Muhammadyusuf Sobirov Bunyodkor Aktiv 110 / 120 40% 1 31.07.2027 -
Giovanni Stellato Guidonia Montecelio Aktiv 97 / 102 40% 1 31.07.2027 -
Favour Bala Plateau United Aktiv 98 / 92 40% 1 30.07.2027 -
Leon Klanac Bayern Munich Aktiv 97 / 112 40% 2 26.07.2027 -
Diego Mina Lugano Aktiv 94 / 98 40% 1 23.07.2027 -
Nathaniel Nwosu Rangers International Aktiv 116 / 115 40% 1 21.07.2027 -
Ben Cisse Reading Aktiv 92 / 112 40% 1 21.07.2027 -
Roberto Moreno Cruz Azul Aktiv 93 / 98 40% 2 20.07.2027 -
Gady Beyuku Modena Aktiv 121 / 120 40% 1 19.07.2027 -
Ismaël Baouf Cambuur Aktiv 128 / 129 40% 1 19.07.2027 -
Dylan Martínez River Plate Aktiv 91 / 86 40% 1 19.07.2027 -
Tcherno Jamanca Porto Aktiv 77 / 98 40% 3 18.07.2027 -
Pablo Suárez Rentistas Aktiv 111 / 96 40% 2 18.07.2027 -
Sheldon Dinesh Stockport County Aktiv 101 / 112 40% 1 15.07.2027 -
Darlvin Yeboah Bechem United Aktiv 79 / 81 40% 2 14.07.2027 -
Ezekiel Kwame Alladoh Philadelphia Union Aktiv 113 / 140 40% 3 13.07.2027 -
Mateus Mide Porto Aktiv 96 / 112 40% 1 13.07.2027 -
Luke Baartman Ghazl El Mahalla Aktiv 102 / 113 40% 1 12.07.2027 -
Michael Noumon Heart of Lions Aktiv 79 / 97 40% 3 11.07.2027 -
Martin James Köln Aktiv 92 / 97 40% 1 11.07.2027 -
Agustín Albrini Independiente Rivadavia Aktiv 89 / 113 40% 1 11.07.2027 -
Iwan Morgan Grimsby Town Aktiv 114 / 116 40% 1 08.07.2027 -
Risilanu Ismail El-Kanemi Warriors Aktiv 82 / 91 40% 1 06.07.2027 -
Michael Lainer Mattersburg Aktiv 113 / 119 62% 1 05.07.2027 Befürworten
Sidiki Chérif Coventry City Aktiv 135 / 141 40% 2 04.07.2027 -
Mattia Mannini Juve Stabia Aktiv 121 / 123 40% 3 04.07.2027 -
Tommaso Ravaglioli AlbinoLeffe Aktiv 90 / 94 40% 1 04.07.2027 -
Alan Coria Villarreal Aktiv 111 / 113 40% 1 01.07.2027 -
Konstantinos Karetsas Borussia Dortmund Aktiv 124 / 135 40% 3 27.06.2027 -
Luca Maiorano Ospitaletto Aktiv 110 / 111 40% 2 27.06.2027 -
Paulo Cardoso Sporting CP Aktiv 104 / 93 40% 3 24.06.2027 -
Joseph Opoku Swansea City Aktiv 112 / 115 40% 2 22.06.2027 -
Borna Knezović Casarano Aktiv 105 / 103 40% 1 21.06.2027 -
Ryan Oné Sheffield United Aktiv 105 / 127 40% 3 20.06.2027 -
Dylan Lawlor Cardiff City Aktiv 112 / 121 40% 1 20.06.2027 -
Maren Kefas Plateau United Aktiv 106 / 83 40% 2 18.06.2027 -
Kabiru Abdullahi Northampton Town Aktiv 93 / 99 40% 1 18.06.2027 -
Elías de León Deportivo Maldonado Aktiv 110 / 104 40% 1 17.06.2027 -
Harrison Bettoni Wigan Athletic Aktiv 87 / 105 40% 2 16.06.2027 -
George Paaku Hearts of Oak Aktiv 97 / 100 40% 1 16.06.2027 -
Teo Rodríguez Pagano San Lorenzo Aktiv 115 / 109 40% 1 16.06.2027 -
Tiago Freitas Benfica Aktiv 121 / 119 40% 1 16.06.2027 -
Emmanuel Nweke Smouha Aktiv 94 / 111 40% 1 14.06.2027 -
Daniel Banjaqui Benfica Aktiv 121 / 117 40% 3 09.06.2027 -
Chineme Chinonso Ikorodu City Aktiv 97 / 88 40% 1 08.06.2027 -
Mattia Rutigliano Pro Vercelli Aktiv 103 / 106 40% 1 06.06.2027 -
Alexis Vossah Toulouse FC Aktiv 107 / 125 40% 1 01.06.2027 -
Monty Batlhabane Polokwane City Aktiv 85 / 90 40% 4 30.01.2027 -
Afriyie Sulemana Hasaacas Aktiv 87 / 111 40% 1 30.01.2027 Mehr Infos nötig
Kervin Andrade Maccabi Tel Aviv Aktiv 114 / 111 40% 1 29.01.2027 -
Mats Egbring Heerenveen Aktiv 88 / 108 40% 1 28.01.2027 -
Axel Tape Bayer Leverkusen Aktiv 131 / 120 40% 2 26.01.2027 -
Diego Madritsch Floriana Aktiv 81 / 94 40% 1 26.01.2027 -
Mfundo Vilakazi Kaizer Chiefs Aktiv 108 / 102 40% 2 23.01.2027 -
Kento Shiogai VfL Wolfsburg Aktiv 105 / 116 40% 1 20.01.2027 -
Otto Stange Hamburger SV Aktiv 108 / 123 40% 1 20.01.2027 -
Morgan Manyama SuperSport United Aktiv 130 / 106 40% 1 19.01.2027 -
Roberto Iliev Slavia Sofia Aktiv 115 / 94 40% 1 17.01.2027 -
Morgan Kekana Free State Stars Aktiv 111 / 111 40% 2 16.01.2027 -
Juan David Obando Dinamo Barnaul Aktiv 95 / 72 40% 2 14.01.2027 -
Mandla Modiba Free State Stars Aktiv 85 / 114 40% 1 09.01.2027 -
Vesel Demaku Altach Aktiv 117 / 114 55% 1 04.01.2027 -
Tudor Mendel-Idowu Fleetwood Town Aktiv 93 / 107 40% 1 03.01.2027 -
Nino Marcelli Slovan Bratislava Aktiv 124 / 134 40% 1 01.01.2027 -
Mohamed Bangoura Zurich Aktiv 94 / 98 40% 2 31.08.2026 -
Ante Bajić SV Ried Aktiv 108 / 120 55% 1 31.08.2026 -
Bruno Katz VfL Wolfsburg Aktiv 91 / 96 40% 1 26.08.2026 -
Dino Kojić Olimpija Ljubljana Aktiv 101 / 121 40% 1 25.08.2026 -
Seb Naylor Bristol City Aktiv 103 / 102 40% 1 12.08.2026 -
Alessio Hasler Vaduz Aktiv 82 / 85 40% 1 07.08.2026 -
Alfie Harrison Newcastle United Aktiv 93 / 112 40% 1 03.08.2026 -
Jamie Mullins Wycombe Wanderers Aktiv 84 / 106 40% 1 03.08.2026 -
Juan Dinenno Pumas UNAM Aktiv 131 / 118 40% 1 02.08.2026 -